Time;durP1;ratioP1;P1;durP2;ratioP2;P2;SDS_P1;SDS_P2;PMS_P1;PMS_P2;Temp;Humidity;BMP_temperature;BMP_pressure;BME280_temperature;BME280_humidity;BME280_pressure;Samples;Min_cycle;Max_cycle;Signal;HPM_P1;HPM_P2
2022/01/27 00:02:52;;;;;;;59.95;33.28;;;5.60;99.60;;;;;;5050805;28;20037;-75
2022/01/27 00:05:20;;;;;;;54.67;33.60;;;5.60;99.60;;;;;;5052976;28;20055;-75
2022/01/27 00:13:10;;;;;;;50.05;30.58;;;5.60;99.70;;;;;;5050100;28;20041;-76
2022/01/27 00:15:35;;;;;;;51.50;31.17;;;5.60;99.60;;;;;;5034409;28;20449;-76
2022/01/27 00:18:08;;;;;;;53.15;30.75;;;5.60;99.50;;;;;;5051180;28;20108;-76
2022/01/27 00:20:34;;;;;;;47.97;29.77;;;5.70;99.50;;;;;;5052051;28;20068;-76
2022/01/27 00:23:00;;;;;;;49.90;29.10;;;5.70;99.30;;;;;;5049563;28;20450;-76
2022/01/27 00:25:25;;;;;;;50.88;30.08;;;5.70;99.40;;;;;;5051568;28;20025;-76
2022/01/27 00:27:51;;;;;;;45.25;27.90;;;5.70;99.40;;;;;;5046828;28;20504;-75
2022/01/27 00:30:16;;;;;;;44.78;28.20;;;5.70;99.40;;;;;;5046022;28;20451;-76
2022/01/27 00:32:42;;;;;;;45.83;26.95;;;5.70;99.20;;;;;;5052533;28;20456;-76
2022/01/27 00:35:08;;;;;;;44.50;25.88;;;5.70;99.10;;;;;;5052696;28;20409;-76
2022/01/27 00:37:34;;;;;;;41.38;24.67;;;5.70;99.20;;;;;;5052492;28;20025;-76
2022/01/27 00:40:00;;;;;;;41.20;24.98;;;5.70;99.20;;;;;;5052365;28;20380;-76
2022/01/27 00:42:27;;;;;;;45.05;25.08;;;5.70;99.20;;;;;;5052157;28;20039;-76
2022/01/27 00:44:54;;;;;;;39.95;23.55;;;5.70;99.20;;;;;;5049698;28;20032;-76
2022/01/27 00:47:20;;;;;;;39.30;23.25;;;5.70;99.10;;;;;;5051832;28;20388;-76
2022/01/27 00:49:45;;;;;;;40.83;23.90;;;5.70;99.00;;;;;;5052472;28;20058;-75
2022/01/27 00:52:15;;;;;;;40.05;22.85;;;5.70;99.00;;;;;;5052098;28;20025;-76
2022/01/27 00:54:42;;;;;;;44.97;23.95;;;5.70;98.90;;;;;;5052289;28;20066;-76
2022/01/27 00:57:34;;;;;;;38.70;22.75;;;5.70;98.90;;;;;;5052006;28;20423;-75
2022/01/27 01:00:03;;;;;;;40.28;22.05;;;5.70;98.90;;;;;;5052503;28;20400;-75
2022/01/27 01:07:35;;;;;;;40.50;22.88;;;5.70;98.90;;;;;;5052000;28;20484;-75
2022/01/27 01:15:05;;;;;;;39.13;23.75;;;5.70;98.90;;;;;;5050272;28;20032;-74
2022/01/27 01:17:49;;;;;;;42.45;23.60;;;5.70;98.80;;;;;;5051588;28;20102;-75
2022/01/27 01:31:12;;;;;;;42.75;26.08;;;5.80;98.60;;;;;;5049916;28;20032;-75
2022/01/27 01:33:40;;;;;;;44.47;26.55;;;5.80;98.80;;;;;;5051426;28;20496;-75
2022/01/27 01:36:15;;;;;;;45.33;26.88;;;5.70;98.70;;;;;;5051587;28;20025;-75
2022/01/27 01:38:42;;;;;;;44.80;26.67;;;5.70;98.80;;;;;;5051789;28;20041;-75
2022/01/27 01:41:08;;;;;;;43.20;27.05;;;5.70;99.00;;;;;;5051225;28;20032;-75
2022/01/27 01:43:34;;;;;;;46.40;27.35;;;5.70;99.00;;;;;;5051425;28;20025;-75
2022/01/27 01:46:00;;;;;;;43.53;26.48;;;5.70;99.10;;;;;;5051854;28;20028;-75
2022/01/27 01:48:26;;;;;;;46.42;27.50;;;5.70;99.00;;;;;;5051636;28;20037;-75
2022/01/27 01:50:51;;;;;;;44.38;27.75;;;5.70;99.10;;;;;;5051878;28;20385;-75
2022/01/27 01:53:17;;;;;;;46.85;27.20;;;5.70;99.10;;;;;;5051116;28;20183;-75
2022/01/27 01:55:43;;;;;;;42.85;26.45;;;5.70;99.00;;;;;;5051303;28;20128;-75
2022/01/27 01:58:09;;;;;;;45.53;26.90;;;5.70;99.10;;;;;;5050740;28;20044;-75
2022/01/27 02:00:35;;;;;;;46.67;27.60;;;5.60;99.20;;;;;;5051519;28;20025;-74
2022/01/27 02:03:01;;;;;;;45.03;27.80;;;5.60;99.20;;;;;;5051865;28;20029;-75
2022/01/27 02:05:33;;;;;;;49.33;28.25;;;5.60;99.20;;;;;;5051813;28;20106;-75
2022/01/27 02:08:31;;;;;;;48.08;27.65;;;5.60;99.40;;;;;;5050773;28;20044;-76
2022/01/27 02:19:20;;;;;;;43.45;26.90;;;5.70;99.40;;;;;;5049051;28;20044;-76
2022/01/27 02:21:55;;;;;;;43.50;26.50;;;5.60;99.30;;;;;;5051469;28;20056;-75
2022/01/27 02:24:23;;;;;;;46.88;27.88;;;5.60;99.40;;;;;;5053929;28;20024;-75
2022/01/27 02:26:49;;;;;;;43.50;27.42;;;5.60;99.40;;;;;;5053924;28;20021;-76
2022/01/27 02:29:16;;;;;;;46.10;26.52;;;5.60;99.40;;;;;;5051144;28;20033;-75
2022/01/27 02:31:42;;;;;;;44.25;24.73;;;5.60;99.50;;;;;;5051263;28;20396;-74
2022/01/27 02:34:08;;;;;;;43.47;25.80;;;5.60;99.60;;;;;;5050461;28;20043;-74
2022/01/27 02:36:34;;;;;;;44.92;26.88;;;5.60;99.50;;;;;;5051011;28;20029;-74
2022/01/27 02:39:02;;;;;;;49.13;28.40;;;5.60;99.40;;;;;;5052344;28;20379;-74
2022/01/27 02:41:35;;;;;;;43.22;25.65;;;5.60;99.50;;;;;;5054893;28;20380;-74
2022/01/27 02:44:00;;;;;;;43.60;26.27;;;5.60;99.60;;;;;;5054482;28;20113;-75
2022/01/27 02:46:34;;;;;;;45.08;26.73;;;5.60;99.60;;;;;;5054346;28;20666;-75
2022/01/27 02:49:00;;;;;;;51.88;28.50;;;5.60;99.60;;;;;;5054496;28;20028;-75
2022/01/27 02:51:25;;;;;;;46.03;26.45;;;5.50;99.60;;;;;;5054380;28;20032;-75
2022/01/27 02:53:51;;;;;;;42.10;25.88;;;5.50;99.80;;;;;;5053664;28;20043;-75
2022/01/27 02:56:17;;;;;;;44.22;26.20;;;5.60;99.70;;;;;;5054378;28;20029;-75
2022/01/27 02:58:42;;;;;;;43.28;26.88;;;5.50;99.70;;;;;;5054260;28;20033;-75
2022/01/27 03:01:10;;;;;;;49.22;26.92;;;5.60;99.90;;;;;;5054497;28;20059;-75
2022/01/27 03:03:35;;;;;;;44.60;26.75;;;5.60;99.90;;;;;;5053315;28;20033;-75
2022/01/27 03:06:01;;;;;;;42.67;25.40;;;5.70;99.90;;;;;;5053380;28;20025;-75
2022/01/27 03:08:27;;;;;;;46.80;26.13;;;5.70;99.90;;;;;;5054075;28;20427;-75
2022/01/27 03:11:03;;;;;;;49.33;27.25;;;5.60;99.90;;;;;;5054222;28;20023;-76
2022/01/27 03:13:30;;;;;;;42.17;25.80;;;5.60;99.80;;;;;;5052033;28;20037;-75
2022/01/27 03:15:56;;;;;;;43.75;25.92;;;5.60;99.80;;;;;;5054195;28;20025;-75
2022/01/27 03:18:22;;;;;;;46.13;26.55;;;5.60;99.90;;;;;;5053691;28;20476;-75
2022/01/27 03:20:47;;;;;;;45.55;26.98;;;5.60;99.90;;;;;;5053875;28;20028;-74
2022/01/27 03:23:13;;;;;;;50.42;28.35;;;5.60;99.90;;;;;;5061292;28;20033;-75
2022/01/27 03:25:38;;;;;;;40.80;24.35;;;5.60;99.90;;;;;;5055990;28;20056;-75
2022/01/27 03:28:04;;;;;;;44.83;26.63;;;5.70;99.90;;;;;;5053039;28;20035;-75
2022/01/27 03:30:30;;;;;;;44.47;26.40;;;5.70;99.90;;;;;;5053281;28;20041;-75
2022/01/27 03:32:55;;;;;;;39.80;24.83;;;5.70;99.90;;;;;;5045441;28;20080;-75
2022/01/27 03:35:21;;;;;;;42.15;26.25;;;5.70;99.90;;;;;;5049852;28;20372;-74
2022/01/27 03:37:47;;;;;;;44.72;26.02;;;5.70;99.90;;;;;;5042913;28;20116;-74
2022/01/27 03:40:12;;;;;;;42.55;26.48;;;5.70;99.90;;;;;;5041889;28;20028;-74
2022/01/27 03:42:45;;;;;;;41.53;26.52;;;5.70;99.90;;;;;;5036510;28;20039;-75
2022/01/27 03:45:11;;;;;;;44.47;26.95;;;5.70;99.90;;;;;;5036783;28;20057;-74
2022/01/27 03:47:37;;;;;;;41.00;25.38;;;5.70;99.90;;;;;;5035537;28;20060;-75
2022/01/27 03:50:02;;;;;;;46.35;26.10;;;5.70;99.90;;;;;;5039188;28;20112;-75
2022/01/27 03:52:28;;;;;;;44.33;26.40;;;5.80;99.90;;;;;;5052865;28;20032;-75
2022/01/27 03:54:54;;;;;;;40.70;25.55;;;5.70;99.90;;;;;;5053079;28;20029;-75
2022/01/27 03:57:19;;;;;;;44.60;26.25;;;5.70;99.90;;;;;;5053441;28;20101;-76
2022/01/27 03:59:45;;;;;;;45.08;28.15;;;5.70;99.90;;;;;;5052886;28;20565;-75
2022/01/27 04:02:10;;;;;;;45.80;26.48;;;5.70;99.90;;;;;;5053546;28;20028;-75
2022/01/27 04:04:36;;;;;;;43.95;25.73;;;5.80;99.90;;;;;;5053056;28;20389;-75
2022/01/27 04:07:03;;;;;;;40.75;26.40;;;5.80;99.90;;;;;;5052592;28;20037;-75
2022/01/27 04:09:29;;;;;;;49.95;27.65;;;5.80;99.90;;;;;;5053177;28;20433;-75
2022/01/27 04:11:55;;;;;;;41.30;25.50;;;5.80;99.90;;;;;;5053010;28;20104;-75
2022/01/27 04:14:20;;;;;;;43.90;24.55;;;5.70;99.90;;;;;;5052585;28;20063;-75
2022/01/27 04:16:47;;;;;;;43.00;25.92;;;5.80;99.90;;;;;;5052995;28;20365;-75
2022/01/27 04:19:12;;;;;;;44.17;26.85;;;5.70;99.90;;;;;;5053319;28;20398;-75
2022/01/27 04:21:38;;;;;;;42.72;25.50;;;5.70;99.90;;;;;;5058108;28;20025;-75
2022/01/27 04:24:04;;;;;;;38.17;24.10;;;5.70;99.90;;;;;;5054473;28;20029;-75
2022/01/27 04:26:40;;;;;;;41.72;24.77;;;5.80;99.90;;;;;;5052540;28;20491;-75
2022/01/27 04:29:06;;;;;;;43.72;24.90;;;5.80;99.90;;;;;;5052895;28;20043;-75
2022/01/27 04:31:32;;;;;;;42.40;25.65;;;5.80;99.90;;;;;;5052078;28;20033;-75
2022/01/27 04:33:59;;;;;;;39.75;25.83;;;5.80;99.90;;;;;;5051996;28;20039;-75
2022/01/27 04:36:35;;;;;;;39.95;25.02;;;5.80;99.90;;;;;;5051714;28;20522;-75
2022/01/27 04:44:29;;;;;;;38.97;23.63;;;5.80;99.90;;;;;;5050498;28;20025;-75
2022/01/27 04:47:04;;;;;;;44.80;25.20;;;5.80;99.90;;;;;;5051888;28;20107;-75
2022/01/27 04:49:29;;;;;;;46.72;24.67;;;5.80;99.90;;;;;;5050446;28;20043;-75
2022/01/27 04:51:55;;;;;;;39.28;24.60;;;5.80;99.90;;;;;;5052133;28;20025;-75
2022/01/27 04:54:27;;;;;;;45.58;24.65;;;5.80;99.90;;;;;;5052029;28;20613;-75
2022/01/27 04:56:58;;;;;;;41.45;23.88;;;5.80;99.90;;;;;;5051984;28;20076;-75
2022/01/27 04:59:27;;;;;;;40.22;24.40;;;5.80;99.90;;;;;;5050573;28;20357;-75
2022/01/27 05:02:04;;;;;;;40.47;22.83;;;5.80;99.90;;;;;;5051285;28;20029;-74
2022/01/27 05:04:30;;;;;;;42.45;23.27;;;5.80;99.90;;;;;;5052226;28;20473;-75
2022/01/27 05:06:56;;;;;;;41.17;22.73;;;5.90;99.90;;;;;;5052262;28;20106;-75
2022/01/27 05:09:23;;;;;;;41.10;24.17;;;5.90;99.90;;;;;;5051727;28;20540;-75
2022/01/27 05:11:54;;;;;;;37.42;23.08;;;5.90;99.90;;;;;;5051934;28;20031;-75
2022/01/27 05:14:24;;;;;;;38.30;22.88;;;5.80;99.90;;;;;;5051846;28;20439;-74
2022/01/27 05:16:51;;;;;;;41.53;22.58;;;5.90;99.90;;;;;;5052397;28;20093;-74
2022/01/27 05:19:17;;;;;;;40.47;23.52;;;5.80;99.90;;;;;;5055863;28;20045;-74
2022/01/27 05:21:43;;;;;;;41.05;22.88;;;5.80;99.90;;;;;;5056526;28;20029;-75
2022/01/27 05:24:09;;;;;;;39.42;22.85;;;5.90;99.90;;;;;;5052443;28;20029;-75
2022/01/27 05:26:36;;;;;;;41.50;23.02;;;5.80;99.90;;;;;;5051692;28;20025;-74
2022/01/27 05:29:06;;;;;;;39.38;22.95;;;5.80;99.90;;;;;;5051931;28;20036;-75
2022/01/27 05:31:32;;;;;;;41.75;22.33;;;5.80;99.90;;;;;;5051572;28;20035;-74
2022/01/27 05:33:57;;;;;;;39.15;21.42;;;5.90;99.90;;;;;;5051625;28;20128;-74
2022/01/27 05:36:23;;;;;;;37.92;22.13;;;5.90;99.90;;;;;;5051466;28;20333;-75
2022/01/27 05:38:49;;;;;;;38.90;22.00;;;5.90;99.90;;;;;;5051495;28;20032;-74
2022/01/27 05:41:15;;;;;;;38.20;21.05;;;5.90;99.90;;;;;;5051468;28;20095;-74
2022/01/27 05:43:42;;;;;;;38.08;21.75;;;5.90;99.90;;;;;;5051615;28;20454;-74
2022/01/27 05:46:08;;;;;;;39.80;22.10;;;5.90;99.90;;;;;;5051132;28;20021;-74
2022/01/27 05:48:34;;;;;;;37.45;21.70;;;5.90;99.90;;;;;;5051433;28;20036;-74
2022/01/27 05:50:59;;;;;;;41.25;22.10;;;6.00;99.90;;;;;;5051566;28;20071;-74
2022/01/27 05:53:25;;;;;;;38.83;20.67;;;6.00;99.90;;;;;;5051302;28;20033;-75
2022/01/27 05:55:52;;;;;;;43.05;21.58;;;6.00;99.90;;;;;;5051541;28;20439;-74
2022/01/27 05:58:17;;;;;;;37.45;20.48;;;6.00;99.90;;;;;;5051702;28;20353;-74
2022/01/27 06:00:43;;;;;;;37.65;21.08;;;6.00;99.90;;;;;;5051165;28;20039;-76
2022/01/27 06:03:09;;;;;;;38.58;20.77;;;6.10;99.90;;;;;;5052160;28;20033;-74
2022/01/27 06:05:34;;;;;;;36.95;20.55;;;6.00;99.90;;;;;;5049622;28;20048;-73
2022/01/27 06:08:00;;;;;;;36.33;20.67;;;6.10;99.90;;;;;;5050527;28;20052;-73
2022/01/27 06:10:26;;;;;;;42.42;20.98;;;6.10;99.90;;;;;;5050944;28;20147;-76
2022/01/27 06:12:54;;;;;;;42.08;20.85;;;6.00;99.90;;;;;;5052873;28;20041;-74
2022/01/27 06:15:27;;;;;;;41.15;20.85;;;6.10;99.90;;;;;;5055211;28;20029;-74
2022/01/27 06:17:53;;;;;;;;;;;6.10;99.90;;;;;;5058358;28;20044;-74
2022/01/27 06:20:19;;;;;;;40.72;18.98;;;6.10;99.90;;;;;;5054944;28;19909;-74
2022/01/27 06:22:45;;;;;;;41.47;21.00;;;6.10;99.90;;;;;;5054925;28;20070;-74
2022/01/27 06:25:12;;;;;;;36.70;18.98;;;6.10;99.90;;;;;;5053366;28;20033;-74
2022/01/27 06:27:38;;;;;;;40.88;18.52;;;6.10;99.90;;;;;;5052504;28;20032;-75
2022/01/27 06:30:06;;;;;;;37.97;18.17;;;6.10;99.90;;;;;;5052268;28;20021;-75
2022/01/27 06:32:33;;;;;;;36.35;18.63;;;6.20;99.90;;;;;;5052440;28;20388;-75
2022/01/27 06:34:59;;;;;;;35.75;18.02;;;6.20;99.90;;;;;;5052767;28;20091;-75
2022/01/27 06:37:25;;;;;;;35.50;17.83;;;6.30;99.90;;;;;;5052958;28;20380;-76
2022/01/27 06:39:52;;;;;;;36.75;16.85;;;6.30;99.90;;;;;;5054696;28;20108;-78
2022/01/27 06:42:18;;;;;;;33.20;16.63;;;6.30;99.90;;;;;;5054561;28;20037;-78
2022/01/27 06:44:44;;;;;;;34.72;17.05;;;6.30;99.90;;;;;;5054221;28;20029;-76
2022/01/27 06:47:09;;;;;;;33.28;16.75;;;6.40;99.90;;;;;;5053910;28;20048;-76
2022/01/27 06:49:35;;;;;;;33.42;16.45;;;6.30;99.90;;;;;;5054393;28;20025;-75
2022/01/27 06:52:01;;;;;;;32.83;16.20;;;6.40;99.90;;;;;;5054264;28;20055;-77
2022/01/27 06:54:26;;;;;;;35.95;16.85;;;6.40;99.90;;;;;;5050979;28;20128;-77
2022/01/27 06:56:52;;;;;;;30.90;16.73;;;6.40;99.90;;;;;;5045053;28;20377;-77
2022/01/27 06:59:18;;;;;;;33.05;14.77;;;6.50;99.90;;;;;;5035077;28;20507;-76
2022/01/27 07:01:43;;;;;;;34.55;17.27;;;6.50;99.90;;;;;;5043105;28;20155;-75
2022/01/27 07:04:09;;;;;;;34.83;16.95;;;6.50;99.90;;;;;;5037367;28;20538;-75
2022/01/27 07:06:35;;;;;;;30.30;16.25;;;6.50;99.90;;;;;;5037809;28;20056;-80
2022/01/27 07:09:02;;;;;;;35.45;16.17;;;6.60;99.90;;;;;;5046199;28;20151;-74
2022/01/27 07:11:28;;;;;;;34.17;16.40;;;6.60;99.90;;;;;;5054097;28;20021;-85
2022/01/27 07:13:54;;;;;;;33.47;16.77;;;6.50;99.90;;;;;;5069646;28;20041;-84
2022/01/27 07:16:19;;;;;;;36.78;16.88;;;6.60;99.90;;;;;;5074083;28;20025;-85
2022/01/27 07:18:45;;;;;;;33.97;18.20;;;6.60;99.90;;;;;;5067356;28;20035;-85
2022/01/27 07:21:11;;;;;;;33.78;16.55;;;6.60;99.90;;;;;;5055401;28;20408;-85
2022/01/27 07:23:36;;;;;;;36.88;17.88;;;6.60;99.90;;;;;;5054236;28;20082;-83
2022/01/27 07:26:03;;;;;;;37.00;18.13;;;6.60;99.90;;;;;;5054536;28;20033;-84
2022/01/27 07:28:28;;;;;;;43.70;18.92;;;6.60;99.90;;;;;;5053340;28;20037;-84
2022/01/27 07:30:54;;;;;;;37.35;18.02;;;6.60;99.90;;;;;;5053772;28;20132;-84
2022/01/27 07:33:19;;;;;;;43.33;18.15;;;6.50;99.90;;;;;;5053601;28;20070;-83
2022/01/27 07:35:45;;;;;;;40.20;18.50;;;6.50;99.90;;;;;;5054121;28;20032;-87
2022/01/27 07:38:11;;;;;;;36.17;18.65;;;6.50;99.90;;;;;;5053761;28;20036;-81
2022/01/27 07:40:37;;;;;;;39.15;18.65;;;6.50;99.90;;;;;;5053806;28;20037;-82
2022/01/27 07:43:02;;;;;;;40.03;19.40;;;6.40;99.90;;;;;;5051384;28;20040;-81
2022/01/27 07:45:28;;;;;;;42.33;20.13;;;6.50;99.90;;;;;;5053197;28;20480;-80
2022/01/27 07:47:54;;;;;;;38.72;19.65;;;6.50;99.90;;;;;;5052613;28;20079;-80
2022/01/27 07:50:21;;;;;;;41.15;19.80;;;6.50;99.90;;;;;;5052757;28;20029;-80
2022/01/27 07:52:47;;;;;;;37.72;19.88;;;6.50;99.90;;;;;;5053445;28;20396;-80
2022/01/27 07:55:13;;;;;;;42.97;20.02;;;6.50;99.90;;;;;;5052984;28;20033;-80
2022/01/27 07:57:39;;;;;;;36.53;18.90;;;6.50;99.90;;;;;;5052226;28;20495;-81
2022/01/27 08:00:06;;;;;;;37.33;19.25;;;6.50;99.90;;;;;;5053981;28;20032;-79
2022/01/27 08:02:31;;;;;;;37.88;18.95;;;6.50;99.90;;;;;;5052946;28;20078;-78
2022/01/27 08:04:57;;;;;;;39.20;18.70;;;6.50;99.90;;;;;;5053374;28;20028;-80
2022/01/27 08:07:23;;;;;;;37.55;18.70;;;6.50;99.90;;;;;;5053854;28;20045;-81
2022/01/27 08:09:48;;;;;;;34.75;19.20;;;6.50;99.90;;;;;;5053713;28;20393;-81
2022/01/27 08:12:14;;;;;;;40.85;19.42;;;6.50;99.90;;;;;;5054539;28;20021;-79
2022/01/27 08:14:41;;;;;;;39.63;18.38;;;6.50;99.90;;;;;;5059963;28;20438;-83
2022/01/27 08:17:06;;;;;;;37.78;17.42;;;6.60;99.90;;;;;;5063507;28;20412;-82
2022/01/27 08:19:32;;;;;;;36.55;19.58;;;6.60;99.90;;;;;;5052121;28;20040;-80
2022/01/27 08:21:58;;;;;;;36.03;17.38;;;6.60;99.90;;;;;;5051406;28;20031;-80
2022/01/27 08:24:23;;;;;;;34.30;18.52;;;6.60;99.90;;;;;;5051864;28;20024;-82
2022/01/27 08:26:52;;;;;;;34.03;18.13;;;6.60;99.90;;;;;;5049038;28;20105;-83
2022/01/27 08:29:22;;;;;;;37.90;19.60;;;6.60;99.90;;;;;;5052770;28;20083;-86
2022/01/27 08:32:02;;;;;;;33.67;18.17;;;6.60;99.90;;;;;;5054756;28;20035;-84
2022/01/27 08:34:38;;;;;;;36.63;19.17;;;6.60;99.90;;;;;;5053967;28;20064;-84
2022/01/27 08:37:12;;;;;;;35.38;18.05;;;6.60;99.90;;;;;;5052680;28;20029;-83
2022/01/27 08:39:39;;;;;;;35.03;17.55;;;6.60;99.90;;;;;;5054397;28;20482;-84
2022/01/27 08:42:06;;;;;;;31.55;18.15;;;6.60;99.90;;;;;;5053196;28;20059;-81
2022/01/27 08:44:32;;;;;;;33.25;18.25;;;6.70;99.90;;;;;;5042498;28;20028;-82
2022/01/27 08:46:58;;;;;;;32.75;17.52;;;6.70;99.90;;;;;;5053555;28;20029;-88
2022/01/27 08:49:26;;;;;;;32.85;18.02;;;6.70;99.90;;;;;;5054227;28;20381;-86
2022/01/27 08:51:52;;;;;;;29.08;17.35;;;6.70;99.90;;;;;;5054165;28;20495;-83
2022/01/27 08:54:17;;;;;;;39.40;18.63;;;6.70;99.90;;;;;;5043273;28;20037;-87
2022/01/27 08:56:44;;;;;;;32.65;17.90;;;6.70;99.90;;;;;;5053639;28;20384;-87
2022/01/27 08:59:10;;;;;;;33.45;17.40;;;6.70;99.90;;;;;;5054565;28;20025;-85
2022/01/27 09:01:36;;;;;;;34.33;17.50;;;6.70;99.90;;;;;;5053806;28;20080;-86
2022/01/27 09:04:03;;;;;;;35.17;19.50;;;6.70;99.90;;;;;;5053216;28;20039;-86
2022/01/27 09:06:29;;;;;;;38.95;18.73;;;6.80;99.90;;;;;;5050834;28;20045;-80
2022/01/27 09:08:56;;;;;;;31.33;17.48;;;6.80;99.90;;;;;;5042861;28;20469;-81
2022/01/27 09:11:23;;;;;;;30.08;17.95;;;6.70;99.90;;;;;;5058771;28;20033;-81
2022/01/27 09:13:48;;;;;;;30.73;17.23;;;6.80;99.90;;;;;;5062728;28;20098;-80
2022/01/27 09:16:16;;;;;;;34.88;18.45;;;6.80;99.90;;;;;;5056778;28;20380;-81
2022/01/27 09:18:41;;;;;;;32.25;17.15;;;6.80;99.90;;;;;;5049797;28;20420;-81
2022/01/27 09:21:12;;;;;;;31.23;17.52;;;6.80;99.90;;;;;;5052076;28;20025;-81
2022/01/27 09:23:38;;;;;;;33.15;17.40;;;6.80;99.90;;;;;;5052103;28;20081;-80
2022/01/27 09:26:08;;;;;;;35.10;17.42;;;6.80;99.90;;;;;;5051814;28;20465;-80
2022/01/27 09:28:34;;;;;;;32.20;17.30;;;6.80;99.90;;;;;;5051989;28;20477;-80
2022/01/27 09:31:01;;;;;;;29.05;17.20;;;6.80;99.90;;;;;;5051466;28;20100;-79
2022/01/27 09:33:28;;;;;;;37.58;17.27;;;6.90;99.90;;;;;;5052190;28;20064;-80
2022/01/27 09:35:54;;;;;;;32.28;16.30;;;6.90;99.90;;;;;;5051793;28;20028;-80
2022/01/27 09:38:20;;;;;;;31.25;15.32;;;6.90;99.90;;;;;;5052177;28;20033;-80
2022/01/27 09:40:50;;;;;;;23.88;14.23;;;6.90;99.90;;;;;;5051570;28;20021;-80
2022/01/27 09:43:16;;;;;;;28.48;15.20;;;6.90;99.90;;;;;;5051609;28;20472;-81
2022/01/27 09:45:42;;;;;;;25.90;15.23;;;6.90;99.90;;;;;;5051742;28;20108;-80
2022/01/27 09:48:15;;;;;;;30.38;16.15;;;6.90;99.90;;;;;;5049958;28;20422;-80
2022/01/27 09:51:00;;;;;;;26.95;14.68;;;7.00;99.90;;;;;;5043073;28;20030;-80
2022/01/27 09:53:27;;;;;;;26.10;14.68;;;7.00;99.90;;;;;;5049491;28;20066;-81
2022/01/27 09:55:52;;;;;;;25.42;14.95;;;7.10;99.90;;;;;;5046198;28;20424;-81
2022/01/27 09:58:18;;;;;;;27.63;15.43;;;7.10;99.90;;;;;;5047391;28;20033;-81
2022/01/27 10:00:44;;;;;;;27.60;16.50;;;7.10;99.90;;;;;;5051062;28;20086;-80
2022/01/27 10:03:14;;;;;;;27.02;14.93;;;7.20;99.90;;;;;;5056884;28;20388;-80
2022/01/27 10:05:42;;;;;;;25.95;14.48;;;7.20;99.90;;;;;;5057444;28;20032;-80
2022/01/27 10:08:15;;;;;;;27.45;14.70;;;7.20;99.90;;;;;;5056989;28;20171;-80
2022/01/27 10:10:46;;;;;;;23.95;13.27;;;7.20;99.90;;;;;;5066636;28;20029;-79
2022/01/27 10:13:30;;;;;;;24.55;14.23;;;7.20;99.90;;;;;;5059292;28;20025;-80
2022/01/27 10:15:56;;;;;;;25.67;14.73;;;7.20;99.90;;;;;;5056860;28;20029;-81
2022/01/27 10:18:26;;;;;;;23.98;13.25;;;7.20;99.90;;;;;;5056285;28;20472;-80
2022/01/27 10:21:00;;;;;;;21.65;12.43;;;7.20;99.90;;;;;;5056993;28;20049;-80
2022/01/27 10:23:30;;;;;;;22.08;12.75;;;7.20;99.90;;;;;;5056510;28;20116;-80
2022/01/27 10:26:08;;;;;;;24.90;12.23;;;7.30;99.90;;;;;;5056843;28;20436;-80
2022/01/27 10:31:11;;;;;;;22.70;12.50;;;7.40;99.90;;;;;;5056780;28;20029;-80
2022/01/27 10:33:54;;;;;;;23.23;11.43;;;7.40;99.90;;;;;;5056268;28;20292;-80
2022/01/27 10:36:29;;;;;;;17.47;9.93;;;7.40;99.90;;;;;;5056240;28;20049;-80
2022/01/27 10:38:57;;;;;;;15.38;9.50;;;7.50;99.90;;;;;;5056343;28;20346;-80
2022/01/27 10:41:24;;;;;;;17.33;10.10;;;7.40;99.90;;;;;;5056328;28;20032;-80
2022/01/27 10:44:04;;;;;;;18.98;10.25;;;7.40;99.90;;;;;;5056068;28;20061;-80
2022/01/27 10:46:31;;;;;;;19.98;10.18;;;7.40;99.90;;;;;;5055749;28;20534;-80
2022/01/27 10:49:05;;;;;;;18.73;9.95;;;7.40;99.90;;;;;;5058430;28;20039;-80
2022/01/27 10:51:41;;;;;;;17.33;10.88;;;7.40;99.90;;;;;;5075991;28;20020;-80
2022/01/27 10:54:18;;;;;;;19.17;11.48;;;7.40;99.90;;;;;;5055963;28;20045;-80
2022/01/27 10:56:44;;;;;;;22.48;12.50;;;7.50;99.90;;;;;;5057887;28;20021;-80
2022/01/27 10:59:15;;;;;;;19.52;12.20;;;7.50;99.90;;;;;;5054176;28;20108;-82
2022/01/27 11:01:42;;;;;;;19.60;12.70;;;7.50;99.90;;;;;;5055634;28;20057;-80
2022/01/27 11:04:10;;;;;;;17.38;11.98;;;7.50;99.90;;;;;;5055009;28;20135;-79
2022/01/27 11:06:37;;;;;;;18.00;11.90;;;7.60;99.90;;;;;;5053945;28;20131;-79
2022/01/27 11:09:09;;;;;;;19.00;12.40;;;7.60;99.90;;;;;;5065945;28;20029;-76
2022/01/27 11:11:38;;;;;;;24.33;14.25;;;7.60;99.90;;;;;;5075983;28;20017;-82
2022/01/27 11:14:04;;;;;;;25.40;14.15;;;7.70;99.90;;;;;;5050789;28;20508;-90
2022/01/27 11:16:36;;;;;;;25.08;13.48;;;7.70;99.90;;;;;;5047268;28;20028;-85
2022/01/27 11:21:40;;;;;;;22.30;14.45;;;7.70;99.90;;;;;;5043695;28;20033;-78
2022/01/27 11:24:15;;;;;;;22.25;13.88;;;7.70;99.90;;;;;;5045277;28;20025;-79
2022/01/27 11:26:43;;;;;;;28.40;15.48;;;7.80;99.90;;;;;;5042381;28;20061;-79
2022/01/27 11:29:10;;;;;;;26.58;16.33;;;7.80;99.90;;;;;;5074290;28;20033;-81
2022/01/27 11:32:00;;;;;;;27.13;15.90;;;7.80;99.90;;;;;;5051996;28;20036;-84
2022/01/27 11:34:46;;;;;;;29.05;16.38;;;7.80;99.90;;;;;;5055004;28;20044;-89
2022/01/27 11:37:15;;;;;;;32.45;16.95;;;7.90;99.90;;;;;;5055942;28;20100;-89
2022/01/27 11:39:53;;;;;;;31.42;17.17;;;8.00;99.90;;;;;;5056259;28;20028;-89
2022/01/27 11:42:42;;;;;;;29.40;16.90;;;8.00;99.90;;;;;;5054879;28;20021;-88
2022/01/27 11:45:23;;;;;;;28.65;16.27;;;8.00;99.90;;;;;;5054413;28;20409;-82
2022/01/27 11:48:08;;;;;;;28.55;15.88;;;8.00;99.90;;;;;;5051834;28;20032;-81
2022/01/27 11:50:51;;;;;;;26.42;16.33;;;8.00;99.90;;;;;;5050073;28;20333;-82
2022/01/27 11:53:29;;;;;;;28.70;17.23;;;8.10;99.90;;;;;;5052572;28;20053;-81
2022/01/27 11:55:55;;;;;;;30.60;17.25;;;8.10;99.90;;;;;;5052409;28;20059;-82
2022/01/27 11:58:22;;;;;;;27.67;16.65;;;8.10;99.90;;;;;;5052884;28;20248;-88
2022/01/27 12:01:04;;;;;;;31.85;16.38;;;8.10;99.90;;;;;;5053041;28;20039;-84
2022/01/27 12:03:31;;;;;;;38.40;16.77;;;8.20;99.90;;;;;;5054574;28;20025;-84
2022/01/27 12:06:21;;;;;;;28.70;17.13;;;8.20;99.90;;;;;;5056592;28;20044;-85
2022/01/27 12:08:47;;;;;;;33.67;17.25;;;8.20;99.90;;;;;;5070570;28;20096;-88
2022/01/27 12:11:52;;;;;;;30.45;18.05;;;8.20;99.90;;;;;;5059891;28;20048;-89
2022/01/27 12:14:23;;;;;;;30.63;16.70;;;8.20;99.90;;;;;;5053641;28;20041;-90
2022/01/27 12:17:10;;;;;;;27.67;17.23;;;8.20;99.90;;;;;;5054311;28;20408;-88
2022/01/27 12:20:02;;;;;;;32.72;16.75;;;8.20;99.90;;;;;;5054030;28;20044;-90
2022/01/27 12:22:47;;;;;;;40.35;17.95;;;8.20;99.90;;;;;;5053551;28;20053;-86
2022/01/27 12:25:13;;;;;;;25.95;16.80;;;8.20;99.90;;;;;;5049838;28;20099;-80
2022/01/27 12:27:41;;;;;;;26.67;16.17;;;8.30;99.90;;;;;;5052655;28;20028;-79
2022/01/27 12:30:11;;;;;;;27.23;16.63;;;8.30;99.90;;;;;;5052852;28;20116;-80
2022/01/27 12:32:36;;;;;;;29.52;16.90;;;8.30;99.90;;;;;;5049498;28;20054;-82
2022/01/27 12:35:04;;;;;;;26.92;15.68;;;8.30;99.90;;;;;;5052990;28;20059;-80
2022/01/27 12:37:34;;;;;;;35.85;16.90;;;8.30;99.90;;;;;;5052307;28;20433;-81
2022/01/27 12:40:04;;;;;;;30.00;15.90;;;8.30;99.90;;;;;;5053325;28;20029;-83
2022/01/27 12:42:37;;;;;;;34.63;16.80;;;8.30;99.90;;;;;;5053090;28;20029;-83
2022/01/27 12:45:04;;;;;;;;;;;8.30;99.90;;;;;;5051556;28;20029;-82
2022/01/27 12:47:31;;;;;;;34.47;16.15;;;8.40;99.90;;;;;;5052774;28;19908;-84
2022/01/27 12:50:08;;;;;;;28.50;15.57;;;8.40;99.90;;;;;;5054411;28;20036;-85
2022/01/27 12:52:40;;;;;;;30.38;15.48;;;8.40;99.90;;;;;;5045537;28;20056;-86
2022/01/27 12:55:13;;;;;;;30.48;15.48;;;8.40;99.90;;;;;;5053667;28;20389;-86
2022/01/27 12:57:40;;;;;;;26.38;14.15;;;8.50;99.90;;;;;;5053784;28;20392;-84
2022/01/27 13:00:10;;;;;;;33.75;15.70;;;8.50;99.90;;;;;;5053723;28;20040;-84
2022/01/27 13:02:37;;;;;;;24.08;14.15;;;8.50;99.90;;;;;;5061146;28;20029;-84
2022/01/27 13:05:04;;;;;;;32.58;14.27;;;8.50;99.90;;;;;;5061353;28;20035;-83
2022/01/27 13:07:30;;;;;;;29.42;13.93;;;8.60;99.90;;;;;;5057568;28;20044;-84
2022/01/27 13:10:08;;;;;;;22.42;12.35;;;8.60;99.90;;;;;;5052712;28;20039;-84
2022/01/27 13:12:42;;;;;;;24.30;12.43;;;8.70;99.90;;;;;;5053976;28;20029;-84
2022/01/27 13:15:13;;;;;;;29.33;12.25;;;8.70;99.90;;;;;;5053189;28;20405;-84
2022/01/27 13:17:52;;;;;;;24.25;11.60;;;8.70;99.90;;;;;;5051205;28;20026;-82
2022/01/27 13:20:24;;;;;;;28.35;11.60;;;8.80;99.90;;;;;;5054223;28;20064;-88
2022/01/27 13:23:05;;;;;;;26.27;12.50;;;8.80;99.90;;;;;;5053751;28;20028;-89
2022/01/27 13:26:03;;;;;;;28.52;11.80;;;8.80;99.90;;;;;;5053807;28;20056;-89
2022/01/27 13:28:33;;;;;;;29.77;11.48;;;8.80;99.90;;;;;;5049721;28;20067;-88
2022/01/27 13:31:11;;;;;;;30.25;12.27;;;8.80;99.90;;;;;;5053005;28;20040;-86
2022/01/27 13:33:42;;;;;;;25.75;11.90;;;8.80;99.90;;;;;;5053580;28;20044;-89